createdAt,value
2018-12-30T00:00:58.253Z,11.53
2018-12-30T00:03:26.776Z,20.97
2018-12-30T00:05:55.632Z,15.50
2018-12-30T00:08:24.273Z,13.00
2018-12-30T00:10:53.364Z,18.97
2018-12-30T00:13:22.211Z,21.73
2018-12-30T00:15:51.190Z,17.43
2018-12-30T00:18:20.003Z,22.77
2018-12-30T00:20:48.940Z,15.27
2018-12-30T00:23:18.132Z,20.77
2018-12-30T00:25:55.868Z,20.33
2018-12-30T00:28:24.357Z,15.77
2018-12-30T00:30:53.021Z,23.97
2018-12-30T00:33:27.377Z,15.87
2018-12-30T00:35:56.214Z,17.23
2018-12-30T00:38:25.024Z,18.40
2018-12-30T00:40:53.891Z,17.73
2018-12-30T00:43:22.398Z,17.70
2018-12-30T00:45:51.299Z,14.70
2018-12-30T00:48:20.439Z,21.67
2018-12-30T00:50:48.995Z,21.97
2018-12-30T00:53:17.526Z,22.23
2018-12-30T00:55:46.077Z,23.97
2018-12-30T00:58:14.903Z,16.37
2018-12-30T01:00:43.779Z,20.53
2018-12-30T01:03:12.569Z,24.63
2018-12-30T01:05:41.361Z,14.77
2018-12-30T01:08:10.277Z,24.03
2018-12-30T01:10:39.065Z,27.93
2018-12-30T01:13:07.645Z,16.07
2018-12-30T01:15:36.572Z,19.30
2018-12-30T01:18:05.232Z,25.37
2018-12-30T01:20:33.736Z,21.33
2018-12-30T01:23:02.273Z,20.67
2018-12-30T01:25:30.771Z,18.57
2018-12-30T01:27:59.258Z,13.83
2018-12-30T01:30:27.879Z,18.73
2018-12-30T01:32:56.392Z,29.97
2018-12-30T01:35:24.959Z,19.13
2018-12-30T01:37:53.792Z,14.43
2018-12-30T01:40:22.310Z,21.87
2018-12-30T01:42:50.882Z,20.73
2018-12-30T01:45:19.739Z,14.47
2018-12-30T01:47:48.264Z,14.70
2018-12-30T01:50:16.791Z,19.93
2018-12-30T01:52:45.327Z,19.43
2018-12-30T01:55:13.778Z,14.80
2018-12-30T01:57:42.243Z,19.60
2018-12-30T02:00:10.916Z,18.57
2018-12-30T02:02:39.462Z,15.43
2018-12-30T02:05:08.009Z,18.30
2018-12-30T02:07:36.477Z,21.60
2018-12-30T02:10:05.934Z,13.37
2018-12-30T02:12:34.426Z,7.33
2018-12-30T02:15:02.974Z,12.87
2018-12-30T02:17:31.829Z,7.40
2018-12-30T02:20:00.751Z,10.37
2018-12-30T02:22:29.563Z,14.97
2018-12-30T02:24:58.360Z,13.53
2018-12-30T02:27:26.832Z,14.00
2018-12-30T02:29:55.370Z,16.17
2018-12-30T02:32:24.212Z,19.53
2018-12-30T02:34:53.055Z,14.03
2018-12-30T02:37:21.513Z,20.33
2018-12-30T02:39:50.043Z,14.90
2018-12-30T02:42:18.487Z,15.37
2018-12-30T02:44:47.047Z,19.40
2018-12-30T02:47:15.601Z,14.77
2018-12-30T02:49:44.097Z,20.97
2018-12-30T02:52:13.023Z,13.10
2018-12-30T02:54:41.581Z,18.60
2018-12-30T02:57:10.423Z,15.77
2018-12-30T02:59:39.225Z,15.13
2018-12-30T03:02:08.156Z,14.87
2018-12-30T03:04:36.711Z,25.10
2018-12-30T03:07:05.233Z,15.67
2018-12-30T03:09:33.704Z,11.70
2018-12-30T03:12:02.444Z,20.53
2018-12-30T03:14:31.025Z,7.40
2018-12-30T03:16:59.491Z,15.00
2018-12-30T03:19:28.299Z,12.90
2018-12-30T03:21:59.373Z,27.70
2018-12-30T03:24:26.936Z,13.70
2018-12-30T03:26:55.724Z,13.90
2018-12-30T03:29:24.222Z,11.20
2018-12-30T03:31:52.738Z,15.37
2018-12-30T03:34:21.271Z,9.30
2018-12-30T03:36:50.025Z,24.47
2018-12-30T03:39:18.480Z,7.40
2018-12-30T03:41:46.961Z,11.93
2018-12-30T03:44:15.719Z,22.47
2018-12-30T03:46:44.198Z,24.73
2018-12-30T03:49:13.009Z,13.27
2018-12-30T03:51:41.508Z,11.83
2018-12-30T03:54:10.268Z,16.80
2018-12-30T03:56:39.052Z,12.90
2018-12-30T03:59:07.536Z,17.10
2018-12-30T04:01:36.002Z,18.60
2018-12-30T04:04:04.765Z,12.47
2018-12-30T04:06:33.601Z,12.90
2018-12-30T04:09:02.386Z,19.03
2018-12-30T04:11:31.282Z,16.57
2018-12-30T04:14:00.150Z,12.23
2018-12-30T04:16:28.684Z,17.97
2018-12-30T04:18:57.485Z,13.83
2018-12-30T04:21:25.946Z,13.50
2018-12-30T04:23:54.432Z,12.93
2018-12-30T04:26:22.907Z,14.70
2018-12-30T04:28:51.437Z,19.80
2018-12-30T04:31:20.285Z,16.23
2018-12-30T04:33:48.730Z,15.97
2018-12-30T04:36:17.472Z,19.00
2018-12-30T04:38:46.244Z,18.73
2018-12-30T04:41:14.704Z,12.00
2018-12-30T04:43:43.180Z,12.97
2018-12-30T04:46:11.710Z,20.40
2018-12-30T04:48:40.165Z,15.77
2018-12-30T04:51:09.055Z,13.57
2018-12-30T04:53:37.526Z,12.13
2018-12-30T04:56:06.072Z,20.57
2018-12-30T04:58:34.577Z,18.33
2018-12-30T05:01:03.122Z,22.60
2018-12-30T05:03:31.725Z,19.57
2018-12-30T05:08:48.800Z,14.90
2018-12-30T05:11:17.330Z,12.87
2018-12-30T05:13:45.900Z,20.93
2018-12-30T05:16:14.750Z,23.20
2018-12-30T05:18:43.231Z,21.10
2018-12-30T05:21:12.006Z,19.93
2018-12-30T05:23:40.467Z,12.70
2018-12-30T05:26:08.913Z,15.63
2018-12-30T05:28:37.697Z,17.57
2018-12-30T05:31:06.157Z,12.00
2018-12-30T05:33:34.615Z,16.00
2018-12-30T05:36:03.090Z,13.30
2018-12-30T05:38:31.869Z,16.60
2018-12-30T05:41:00.678Z,14.93
2018-12-30T05:43:29.148Z,11.27
2018-12-30T05:45:57.624Z,16.40
2018-12-30T05:48:26.080Z,19.27
2018-12-30T05:50:54.520Z,22.10
2018-12-30T05:53:23.276Z,11.43
2018-12-30T05:55:51.794Z,11.67
2018-12-30T05:58:20.261Z,10.33
2018-12-30T06:00:48.717Z,13.67
2018-12-30T06:03:17.201Z,15.77
2018-12-30T06:05:45.682Z,21.00
2018-12-30T06:08:14.443Z,19.40
2018-12-30T06:10:43.211Z,14.30
2018-12-30T06:13:11.674Z,17.20
2018-12-30T06:15:40.196Z,29.43
2018-12-30T06:18:08.655Z,13.97
2018-12-30T06:20:37.096Z,12.00
2018-12-30T06:23:05.868Z,15.53
2018-12-30T06:25:34.319Z,9.53
2018-12-30T06:28:03.133Z,18.60
2018-12-30T06:30:31.650Z,13.97
2018-12-30T06:33:00.384Z,10.97
2018-12-30T06:35:29.231Z,14.70
2018-12-30T06:37:58.000Z,14.57
2018-12-30T06:40:26.796Z,8.00
2018-12-30T06:42:55.238Z,18.87
2018-12-30T06:45:23.740Z,21.07
2018-12-30T06:47:52.167Z,21.37
2018-12-30T06:50:20.916Z,15.30
2018-12-30T06:52:49.351Z,12.50
2018-12-30T06:55:17.809Z,19.13
2018-12-30T06:57:46.262Z,11.77
2018-12-30T07:00:15.031Z,9.57
2018-12-30T07:02:43.878Z,20.00
2018-12-30T07:05:12.652Z,16.80
2018-12-30T07:07:41.438Z,17.27
2018-12-30T07:10:10.190Z,15.27
2018-12-30T07:12:38.953Z,16.90
2018-12-30T07:15:07.676Z,13.93
2018-12-30T07:17:36.250Z,17.97
2018-12-30T07:20:06.552Z,14.00
2018-12-30T07:22:35.014Z,12.70
2018-12-30T07:25:03.541Z,12.53
2018-12-30T07:27:33.948Z,16.90
2018-12-30T07:30:03.097Z,14.43
2018-12-30T07:32:31.889Z,17.30
2018-12-30T07:35:00.744Z,18.53
2018-12-30T07:37:29.212Z,12.93
2018-12-30T07:39:57.694Z,17.63
2018-12-30T07:42:26.157Z,30.57
2018-12-30T07:45:12.325Z,18.07
2018-12-30T07:47:45.658Z,13.97
2018-12-30T07:50:15.572Z,11.17
2018-12-30T07:52:47.712Z,19.10
2018-12-30T07:55:16.174Z,12.20
2018-12-30T07:57:45.009Z,17.00
2018-12-30T08:00:13.512Z,13.73
2018-12-30T08:02:42.275Z,11.20
2018-12-30T08:05:11.006Z,14.07
2018-12-30T08:07:39.511Z,18.67
2018-12-30T08:10:12.153Z,15.47
2018-12-30T08:12:40.673Z,13.10
2018-12-30T08:15:12.589Z,16.13
2018-12-30T08:17:46.087Z,9.83
2018-12-30T08:20:20.317Z,14.60
2018-12-30T08:22:57.781Z,9.97
2018-12-30T08:25:29.641Z,16.70
2018-12-30T08:27:58.090Z,18.40
2018-12-30T08:30:40.826Z,16.93
2018-12-30T08:33:12.180Z,12.97
2018-12-30T08:35:43.982Z,14.20
2018-12-30T08:38:12.697Z,15.03
2018-12-30T08:40:41.160Z,22.77
2018-12-30T08:43:09.897Z,24.03
2018-12-30T08:45:38.389Z,9.03
2018-12-30T08:48:06.901Z,14.10
2018-12-30T08:50:35.665Z,12.20
2018-12-30T08:53:04.480Z,18.87
2018-12-30T08:55:33.288Z,15.80
2018-12-30T08:58:01.983Z,9.17
2018-12-30T09:00:30.438Z,7.63
2018-12-30T09:02:59.172Z,13.40
2018-12-30T09:05:27.931Z,9.40
2018-12-30T09:07:56.465Z,16.30
2018-12-30T09:10:25.233Z,10.93
2018-12-30T09:12:53.944Z,15.43
2018-12-30T09:15:22.728Z,10.87
2018-12-30T09:17:51.591Z,16.47
2018-12-30T09:20:20.348Z,14.83
2018-12-30T09:22:49.068Z,11.00
2018-12-30T09:25:17.788Z,15.43
2018-12-30T09:27:46.256Z,13.83
2018-12-30T09:30:14.725Z,20.27
2018-12-30T09:32:43.147Z,16.73
2018-12-30T09:35:11.995Z,9.90
2018-12-30T09:37:40.720Z,12.77
2018-12-30T09:40:09.158Z,10.40
2018-12-30T09:42:37.854Z,8.40
2018-12-30T09:45:06.323Z,15.77
2018-12-30T09:47:34.779Z,12.80
2018-12-30T09:50:03.591Z,12.33
2018-12-30T09:52:35.276Z,9.10
2018-12-30T09:55:03.796Z,14.40
2018-12-30T09:57:32.227Z,18.50
2018-12-30T10:00:00.713Z,11.27
2018-12-30T10:02:29.167Z,11.27
2018-12-30T10:04:58.008Z,11.75
2018-12-30T10:07:26.584Z,8.90
2018-12-30T10:09:55.030Z,11.70
2018-12-30T10:12:23.522Z,18.37
2018-12-30T10:14:52.216Z,14.50
2018-12-30T10:17:20.922Z,10.87
2018-12-30T10:19:49.351Z,11.60
2018-12-30T10:22:18.055Z,10.10
2018-12-30T10:24:46.585Z,11.60
2018-12-30T10:27:15.283Z,7.63
2018-12-30T10:29:43.979Z,11.37
2018-12-30T10:32:12.795Z,21.83
2018-12-30T10:34:41.488Z,12.73
2018-12-30T10:37:09.921Z,6.57
2018-12-30T10:39:38.348Z,8.30
2018-12-30T10:42:07.036Z,14.90
2018-12-30T10:44:35.487Z,12.90
2018-12-30T10:47:03.957Z,10.50
2018-12-30T10:49:32.385Z,9.50
2018-12-30T10:52:00.882Z,25.27
2018-12-30T10:54:29.300Z,7.00
2018-12-30T10:56:58.019Z,12.00
2018-12-30T10:59:26.717Z,12.20
2018-12-30T11:01:55.503Z,10.93
2018-12-30T11:04:24.220Z,7.70
2018-12-30T11:06:52.653Z,5.97
2018-12-30T11:09:21.148Z,7.43
2018-12-30T11:11:49.603Z,5.90
2018-12-30T11:14:18.051Z,14.93
2018-12-30T11:16:46.923Z,12.20
2018-12-30T11:19:16.447Z,15.20
2018-12-30T11:21:44.903Z,17.70
2018-12-30T11:24:13.366Z,11.90
2018-12-30T11:26:41.794Z,12.33
2018-12-30T11:29:10.289Z,6.40
2018-12-30T11:31:38.807Z,6.57
2018-12-30T11:34:07.258Z,10.23
2018-12-30T11:36:35.946Z,9.57
2018-12-30T11:39:05.663Z,10.97
2018-12-30T11:41:34.321Z,9.37
2018-12-30T11:44:02.756Z,7.70
2018-12-30T11:46:31.518Z,7.97
2018-12-30T11:48:59.971Z,12.73
2018-12-30T11:51:28.415Z,12.20
2018-12-30T11:53:56.881Z,18.10
2018-12-30T11:56:25.657Z,11.90
2018-12-30T11:58:54.360Z,12.03
2018-12-30T12:01:23.141Z,9.73
2018-12-30T12:03:51.900Z,5.13
2018-12-30T12:06:20.649Z,8.80
2018-12-30T12:08:49.171Z,10.77
2018-12-30T12:11:18.118Z,16.90
2018-12-30T12:13:46.544Z,12.40
2018-12-30T12:16:14.999Z,14.33
2018-12-30T12:18:43.432Z,15.53
2018-12-30T12:21:11.986Z,11.97
2018-12-30T12:23:40.447Z,13.47
2018-12-30T12:26:08.885Z,13.33
2018-12-30T12:28:37.637Z,10.63
2018-12-30T12:31:06.087Z,20.93
2018-12-30T12:33:34.677Z,12.20
2018-12-30T12:36:03.495Z,13.10
2018-12-30T12:38:32.038Z,14.60
2018-12-30T12:41:00.812Z,11.97
2018-12-30T12:43:29.266Z,14.50
2018-12-30T12:45:57.801Z,23.70
2018-12-30T12:48:26.239Z,12.13
2018-12-30T12:50:54.704Z,6.90
2018-12-30T12:53:23.575Z,14.60
2018-12-30T12:55:52.319Z,11.00
2018-12-30T12:58:21.062Z,15.50
2018-12-30T13:00:49.781Z,9.30
2018-12-30T13:03:18.223Z,12.17
2018-12-30T13:05:46.653Z,10.63
2018-12-30T13:08:15.412Z,16.57
2018-12-30T13:10:43.857Z,15.33
2018-12-30T13:13:12.397Z,10.40
2018-12-30T13:15:40.835Z,9.80
2018-12-30T13:18:09.545Z,9.97
2018-12-30T13:20:37.980Z,19.83
2018-12-30T13:23:06.419Z,9.87
2018-12-30T13:25:34.855Z,13.90
2018-12-30T13:28:03.304Z,10.93
2018-12-30T13:30:31.753Z,11.50
2018-12-30T13:33:00.190Z,21.73
2018-12-30T13:35:28.619Z,11.50
2018-12-30T13:37:57.054Z,9.03
2018-12-30T13:40:25.492Z,16.43
2018-12-30T13:42:53.936Z,17.70
2018-12-30T13:45:22.368Z,9.90
2018-12-30T13:47:51.152Z,11.90
2018-12-30T13:50:19.599Z,10.73
2018-12-30T13:52:48.033Z,21.57
2018-12-30T13:55:16.764Z,14.50
2018-12-30T13:57:46.068Z,12.70
2018-12-30T14:00:14.576Z,10.07
2018-12-30T14:02:43.062Z,18.10
2018-12-30T14:05:11.511Z,17.33
2018-12-30T14:07:40.314Z,12.80
2018-12-30T14:10:09.677Z,14.27
2018-12-30T14:12:38.575Z,12.77
2018-12-30T14:15:07.514Z,10.60
2018-12-30T14:17:36.292Z,10.40
2018-12-30T14:20:05.889Z,12.53
2018-12-30T14:22:35.199Z,12.23
2018-12-30T14:25:04.108Z,14.73
2018-12-30T14:27:32.555Z,19.03
2018-12-30T14:30:01.061Z,13.60
2018-12-30T14:32:29.528Z,15.23
2018-12-30T14:34:58.007Z,19.97
2018-12-30T14:37:26.761Z,16.60
2018-12-30T14:39:55.520Z,14.13
2018-12-30T14:42:24.257Z,12.40
2018-12-30T14:44:52.922Z,11.33
2018-12-30T14:47:21.699Z,15.80
2018-12-30T14:49:50.173Z,14.03
2018-12-30T14:52:18.734Z,11.90
2018-12-30T14:54:47.254Z,11.40
2018-12-30T14:57:16.012Z,13.20
2018-12-30T14:59:44.501Z,11.20
2018-12-30T15:02:12.949Z,15.20
2018-12-30T15:04:41.475Z,7.50
2018-12-30T15:07:10.032Z,14.50
2018-12-30T15:09:38.487Z,13.97
2018-12-30T15:12:06.986Z,14.10
2018-12-30T15:14:35.750Z,11.13
2018-12-30T15:17:04.260Z,12.40
2018-12-30T15:19:33.000Z,13.53
2018-12-30T15:22:01.781Z,10.70
2018-12-30T15:24:30.217Z,10.80
2018-12-30T15:26:58.725Z,15.60
2018-12-30T15:29:27.179Z,12.27
2018-12-30T15:31:55.946Z,17.10
2018-12-30T15:34:26.104Z,19.50
2018-12-30T15:36:55.000Z,13.07
2018-12-30T15:39:23.728Z,17.60
2018-12-30T15:41:52.576Z,14.93
2018-12-30T15:44:21.295Z,15.80
2018-12-30T15:46:49.776Z,18.93
2018-12-30T15:49:18.253Z,12.70
2018-12-30T15:51:46.701Z,18.10
2018-12-30T15:54:15.459Z,15.47
2018-12-30T15:56:43.909Z,15.50
2018-12-30T15:59:12.453Z,19.67
2018-12-30T16:01:40.882Z,21.37
2018-12-30T16:04:09.463Z,20.47
2018-12-30T16:06:37.922Z,17.63
2018-12-30T16:09:07.664Z,22.70
2018-12-30T16:11:36.159Z,20.77
2018-12-30T16:14:04.719Z,22.43
2018-12-30T16:16:33.251Z,17.87
2018-12-30T16:19:01.711Z,24.00
2018-12-30T16:21:30.172Z,20.07
2018-12-30T16:23:58.934Z,27.87
2018-12-30T16:26:27.358Z,28.60
2018-12-30T16:28:55.853Z,24.60
2018-12-30T16:31:27.995Z,23.10
2018-12-30T16:33:55.041Z,23.30
2018-12-30T16:36:23.812Z,25.43
2018-12-30T16:38:52.631Z,29.80
2018-12-30T16:41:21.360Z,30.00
2018-12-30T16:43:49.856Z,29.13
2018-12-30T16:46:18.544Z,36.93
2018-12-30T16:48:47.330Z,35.37
2018-12-30T16:51:15.812Z,33.27
2018-12-30T16:53:44.334Z,31.27
2018-12-30T16:56:12.890Z,30.33
2018-12-30T16:58:41.787Z,29.43
2018-12-30T17:01:10.250Z,34.93
2018-12-30T17:03:38.781Z,37.13
2018-12-30T17:06:07.708Z,34.00
2018-12-30T17:08:36.500Z,32.13
2018-12-30T17:11:05.206Z,36.77
2018-12-30T17:13:34.302Z,32.07
2018-12-30T17:16:02.849Z,31.67
2018-12-30T17:18:31.324Z,38.40
2018-12-30T17:20:59.934Z,33.63
2018-12-30T17:23:28.695Z,40.23
2018-12-30T17:25:57.353Z,37.60
2018-12-30T17:28:26.219Z,33.73
2018-12-30T17:30:54.777Z,38.07
2018-12-30T17:33:23.248Z,30.37
2018-12-30T17:35:51.745Z,30.00
2018-12-30T17:38:20.353Z,33.27
2018-12-30T17:40:48.939Z,33.13
2018-12-30T17:43:17.432Z,36.03
2018-12-30T17:45:46.479Z,32.67
2018-12-30T17:48:15.067Z,29.10
2018-12-30T17:50:43.682Z,30.73
2018-12-30T17:53:12.302Z,37.47
2018-12-30T17:55:41.014Z,27.30
2018-12-30T17:58:10.061Z,30.43
2018-12-30T18:00:38.679Z,38.70
2018-12-30T18:03:07.282Z,29.80
2018-12-30T18:05:36.495Z,32.40
2018-12-30T18:08:05.718Z,29.03
2018-12-30T18:10:34.338Z,32.90
2018-12-30T18:13:03.484Z,31.70
2018-12-30T18:15:32.187Z,36.13
2018-12-30T18:18:01.025Z,29.27
2018-12-30T18:20:29.726Z,33.53
2018-12-30T18:22:58.380Z,32.87
2018-12-30T18:25:27.192Z,39.47
2018-12-30T18:27:56.118Z,35.37
2018-12-30T18:30:24.798Z,38.63
2018-12-30T18:32:53.734Z,35.60
2018-12-30T18:35:22.232Z,37.00
2018-12-30T18:38:04.832Z,41.40
2018-12-30T18:40:33.870Z,35.67
2018-12-30T18:43:04.020Z,36.13
2018-12-30T18:45:35.707Z,41.07
2018-12-30T18:48:07.488Z,40.30
2018-12-30T18:50:36.526Z,42.23
2018-12-30T18:53:06.651Z,40.07
2018-12-30T18:55:36.922Z,34.87
2018-12-30T18:58:05.623Z,38.53
2018-12-30T19:00:34.451Z,35.50
2018-12-30T19:03:06.744Z,40.33
2018-12-30T19:05:35.285Z,37.10
2018-12-30T19:08:04.115Z,41.50
2018-12-30T19:10:32.745Z,42.33
2018-12-30T19:13:01.519Z,39.20
2018-12-30T19:15:30.212Z,42.07
2018-12-30T19:18:17.232Z,36.23
2018-12-30T19:20:46.273Z,39.20
2018-12-30T19:23:15.015Z,37.43
2018-12-30T19:25:43.445Z,39.87
2018-12-30T19:28:12.163Z,43.27
2018-12-30T19:30:40.979Z,38.70
2018-12-30T19:33:09.415Z,44.30
2018-12-30T19:35:37.876Z,38.80
2018-12-30T19:38:06.320Z,39.93
2018-12-30T19:40:35.172Z,40.83
2018-12-30T19:43:03.681Z,40.30
2018-12-30T19:45:32.133Z,41.50
2018-12-30T19:48:00.662Z,39.90
2018-12-30T19:50:29.581Z,46.50
2018-12-30T19:52:58.344Z,42.63
2018-12-30T19:55:27.147Z,44.73
2018-12-30T19:57:55.592Z,44.57
2018-12-30T20:00:24.312Z,46.97
2018-12-30T20:02:52.749Z,48.67
2018-12-30T20:05:21.192Z,46.90
2018-12-30T20:07:49.775Z,47.00
2018-12-30T20:10:18.303Z,41.07
2018-12-30T20:12:46.766Z,44.80
2018-12-30T20:15:15.475Z,43.03
2018-12-30T20:17:44.168Z,44.47
2018-12-30T20:20:12.647Z,41.40
2018-12-30T20:22:41.155Z,45.47
2018-12-30T20:25:09.642Z,49.77
2018-12-30T20:27:38.147Z,46.87
2018-12-30T20:30:08.841Z,49.27
2018-12-30T20:32:37.624Z,46.70
2018-12-30T20:35:06.298Z,51.63
2018-12-30T20:37:35.023Z,52.70
2018-12-30T20:40:04.310Z,49.77
2018-12-30T20:42:32.787Z,50.03
2018-12-30T20:45:01.303Z,53.63
2018-12-30T20:47:29.741Z,57.90
2018-12-30T20:49:58.452Z,52.43
2018-12-30T20:52:26.925Z,53.80
2018-12-30T20:54:55.627Z,57.67
2018-12-30T20:57:24.335Z,57.10
2018-12-30T20:59:53.046Z,54.57
2018-12-30T21:02:21.488Z,55.43
2018-12-30T21:04:50.193Z,56.07
2018-12-30T21:07:18.642Z,51.40
2018-12-30T21:09:47.336Z,56.13
2018-12-30T21:12:16.064Z,59.07
2018-12-30T21:14:44.787Z,54.10
2018-12-30T21:17:13.479Z,56.60
2018-12-30T21:19:42.179Z,56.73
2018-12-30T21:22:10.612Z,52.73
2018-12-30T21:24:39.315Z,51.97
2018-12-30T21:27:07.766Z,57.20
2018-12-30T21:29:36.864Z,54.27
2018-12-30T21:32:05.575Z,53.20
2018-12-30T21:34:34.031Z,49.47
2018-12-30T21:37:02.454Z,51.13
2018-12-30T21:39:31.171Z,60.70
2018-12-30T21:41:59.868Z,48.57
2018-12-30T21:44:28.583Z,56.63
2018-12-30T21:46:57.092Z,53.37
2018-12-30T21:49:25.540Z,51.67
2018-12-30T21:51:54.265Z,44.30
2018-12-30T21:54:23.020Z,49.00
2018-12-30T21:56:54.878Z,44.23
2018-12-30T21:59:21.639Z,45.63
2018-12-30T22:01:50.090Z,46.03
2018-12-30T22:04:18.788Z,48.20
2018-12-30T22:06:47.218Z,47.50
2018-12-30T22:09:15.659Z,44.27
2018-12-30T22:11:44.183Z,43.17
2018-12-30T22:14:12.619Z,43.73
2018-12-30T22:16:41.059Z,44.77
2018-12-30T22:19:10.795Z,46.63
2018-12-30T22:21:39.382Z,41.53
2018-12-30T22:24:07.810Z,45.63
2018-12-30T22:26:36.261Z,40.03
2018-12-30T22:29:04.951Z,42.17
2018-12-30T22:31:33.668Z,42.00
2018-12-30T22:34:02.381Z,41.17
2018-12-30T22:36:30.817Z,44.33
2018-12-30T22:38:59.499Z,43.53
2018-12-30T22:41:27.952Z,42.00
2018-12-30T22:43:56.649Z,40.50
2018-12-30T22:46:25.351Z,39.00
2018-12-30T22:48:54.036Z,45.27
2018-12-30T22:51:22.752Z,42.43
2018-12-30T22:53:52.834Z,41.87
2018-12-30T22:56:21.280Z,36.20
2018-12-30T22:58:49.718Z,35.20
2018-12-30T23:01:18.169Z,34.93
2018-12-30T23:03:46.839Z,34.27
2018-12-30T23:06:15.544Z,35.30
2018-12-30T23:08:44.034Z,35.70
2018-12-30T23:11:12.768Z,37.57
2018-12-30T23:13:41.199Z,31.70
2018-12-30T23:16:09.635Z,34.47
2018-12-30T23:18:38.344Z,33.47
2018-12-30T23:21:07.219Z,33.00
2018-12-30T23:23:35.663Z,34.90
2018-12-30T23:26:04.363Z,36.77
2018-12-30T23:28:32.806Z,34.67
2018-12-30T23:31:01.239Z,35.20
2018-12-30T23:33:29.688Z,34.77
2018-12-30T23:35:58.133Z,34.50
2018-12-30T23:38:26.839Z,34.20
2018-12-30T23:40:55.270Z,34.77
2018-12-30T23:43:23.728Z,36.10
2018-12-30T23:45:52.219Z,33.20
2018-12-30T23:48:20.654Z,35.60
2018-12-30T23:50:49.138Z,33.67
2018-12-30T23:53:17.892Z,34.90
2018-12-30T23:55:46.334Z,32.53
2018-12-30T23:58:15.041Z,34.87
